Terminal Aerodrome Forecast
Issued by NWS Duluth, MN

Home | Current Version | Previous Version | Text Only | Print | Product List | Glossary On
Versions: 1 2 3 4 5 6 7 8 9 10 11 12 13 14 15
025
FTUS43 KDLH 182109 AAA
TAFDLH
TAF AMD
KDLH 182109Z 1821/1918 08013G20KT P6SM FEW250
     FM191100 34005KT P6SM FEW250=

USA.gov is the U.S. government's official web portal to all federal, state and local government web resources and services.